sensor_id;sensor_type;location;lat;lon;timestamp;pressure;altitude;pressure_sealevel;temperature;humidity
68141;BME280;54941;52.220;104.306;2023-01-28T00:01:22;96032.81;;;-10.18;77.46
68141;BME280;54941;52.220;104.306;2023-01-28T00:03:49;96043.13;;;-10.10;77.13
68141;BME280;54941;52.220;104.306;2023-01-28T00:06:15;96036.63;;;-10.13;77.92
68141;BME280;54941;52.220;104.306;2023-01-28T00:08:42;96044.72;;;-10.09;77.52
68141;BME280;54941;52.220;104.306;2023-01-28T00:11:12;96045.63;;;-9.96;76.96
68141;BME280;54941;52.220;104.306;2023-01-28T00:13:39;96058.19;;;-9.83;77.27
68141;BME280;54941;52.220;104.306;2023-01-28T00:16:06;96065.66;;;-9.69;77.04
68141;BME280;54941;52.220;104.306;2023-01-28T00:18:34;96067.53;;;-9.73;76.33
68141;BME280;54941;52.220;104.306;2023-01-28T00:21:02;96073.03;;;-9.82;76.11
68141;BME280;54941;52.220;104.306;2023-01-28T00:23:31;96085.03;;;-9.89;76.58
68141;BME280;54941;52.220;104.306;2023-01-28T00:25:58;96088.53;;;-9.63;76.39
68141;BME280;54941;52.220;104.306;2023-01-28T00:28:26;96087.81;;;-9.79;77.07
68141;BME280;54941;52.220;104.306;2023-01-28T00:30:53;96095.56;;;-9.83;77.13
68141;BME280;54941;52.220;104.306;2023-01-28T00:33:19;96108.41;;;-9.75;76.54
68141;BME280;54941;52.220;104.306;2023-01-28T00:35:46;96114.53;;;-9.67;76.02
68141;BME280;54941;52.220;104.306;2023-01-28T00:38:12;96119.88;;;-9.73;75.93
68141;BME280;54941;52.220;104.306;2023-01-28T00:40:39;96122.19;;;-9.56;75.28
68141;BME280;54941;52.220;104.306;2023-01-28T00:43:05;96130.56;;;-9.43;74.80
68141;BME280;54941;52.220;104.306;2023-01-28T00:45:33;96139.47;;;-9.39;74.58
68141;BME280;54941;52.220;104.306;2023-01-28T00:47:59;96131.69;;;-9.34;74.20
68141;BME280;54941;52.220;104.306;2023-01-28T00:50:25;96139.91;;;-9.32;74.57
68141;BME280;54941;52.220;104.306;2023-01-28T00:52:52;96153.28;;;-9.33;74.34
68141;BME280;54941;52.220;104.306;2023-01-28T00:55:19;96159.75;;;-9.02;72.86
68141;BME280;54941;52.220;104.306;2023-01-28T00:57:45;96171.88;;;-8.96;72.62
68141;BME280;54941;52.220;104.306;2023-01-28T01:00:12;96173.66;;;-8.98;72.25
68141;BME280;54941;52.220;104.306;2023-01-28T01:02:40;96181.63;;;-8.79;72.41
68141;BME280;54941;52.220;104.306;2023-01-28T01:05:07;96179.97;;;-8.52;71.48
68141;BME280;54941;52.220;104.306;2023-01-28T01:07:33;96183.09;;;-8.48;71.41
68141;BME280;54941;52.220;104.306;2023-01-28T01:10:00;96194.38;;;-8.28;70.66
68141;BME280;54941;52.220;104.306;2023-01-28T01:12:31;96190.41;;;-8.06;70.24
68141;BME280;54941;52.220;104.306;2023-01-28T01:14:57;96191.75;;;-7.88;69.82
68141;BME280;54941;52.220;104.306;2023-01-28T01:17:24;96197.28;;;-7.57;68.69
68141;BME280;54941;52.220;104.306;2023-01-28T01:19:51;96205.38;;;-7.54;68.43
68141;BME280;54941;52.220;104.306;2023-01-28T01:22:18;96198.91;;;-7.44;68.19
68141;BME280;54941;52.220;104.306;2023-01-28T01:24:44;96206.00;;;-7.38;68.66
68141;BME280;54941;52.220;104.306;2023-01-28T01:27:12;96206.91;;;-7.39;68.06
68141;BME280;54941;52.220;104.306;2023-01-28T01:29:38;96215.00;;;-7.35;68.46
68141;BME280;54941;52.220;104.306;2023-01-28T01:32:05;96212.41;;;-7.59;69.02
68141;BME280;54941;52.220;104.306;2023-01-28T01:34:31;96218.91;;;-7.56;69.61
68141;BME280;54941;52.220;104.306;2023-01-28T01:36:59;96224.31;;;-7.37;69.63
68141;BME280;54941;52.220;104.306;2023-01-28T01:39:25;96224.53;;;-7.15;68.97
68141;BME280;54941;52.220;104.306;2023-01-28T01:41:52;96229.66;;;-7.29;69.83
68141;BME280;54941;52.220;104.306;2023-01-28T01:44:54;96240.63;;;-7.44;71.19
68141;BME280;54941;52.220;104.306;2023-01-28T01:47:22;96240.84;;;-7.09;70.63
68141;BME280;54941;52.220;104.306;2023-01-28T01:49:49;96258.88;;;-6.92;70.09
68141;BME280;54941;52.220;104.306;2023-01-28T01:52:23;96264.25;;;-6.72;69.69
68141;BME280;54941;52.220;104.306;2023-01-28T01:54:55;96267.25;;;-6.55;69.95
68141;BME280;54941;52.220;104.306;2023-01-28T01:57:25;96266.16;;;-6.51;69.77
68141;BME280;54941;52.220;104.306;2023-01-28T01:59:54;96273.63;;;-6.38;69.36
68141;BME280;54941;52.220;104.306;2023-01-28T02:02:22;96271.84;;;-6.36;70.72
68141;BME280;54941;52.220;104.306;2023-01-28T02:04:49;96270.31;;;-6.02;72.99
68141;BME280;54941;52.220;104.306;2023-01-28T02:07:17;96266.91;;;-6.01;73.85
68141;BME280;54941;52.220;104.306;2023-01-28T02:09:44;96274.81;;;-5.83;74.39
68141;BME280;54941;52.220;104.306;2023-01-28T02:12:12;96280.31;;;-5.55;76.21
68141;BME280;54941;52.220;104.306;2023-01-28T02:14:42;96280.22;;;-5.42;76.69
68141;BME280;54941;52.220;104.306;2023-01-28T02:17:09;96291.53;;;-5.48;76.79
68141;BME280;54941;52.220;104.306;2023-01-28T02:19:37;96285.44;;;-5.56;78.57
68141;BME280;54941;52.220;104.306;2023-01-28T02:22:09;96289.28;;;-5.39;79.57
68141;BME280;54941;52.220;104.306;2023-01-28T02:24:55;96288.66;;;-5.43;80.22
68141;BME280;54941;52.220;104.306;2023-01-28T02:27:35;96289.78;;;-5.12;80.85
68141;BME280;54941;52.220;104.306;2023-01-28T02:30:09;96289.66;;;-5.22;82.20
68141;BME280;54941;52.220;104.306;2023-01-28T02:32:42;96288.84;;;-5.22;82.66
68141;BME280;54941;52.220;104.306;2023-01-28T02:35:14;96285.34;;;-5.09;82.53
68141;BME280;54941;52.220;104.306;2023-01-28T02:37:47;96279.66;;;-5.46;84.31
68141;BME280;54941;52.220;104.306;2023-01-28T02:40:22;96287.88;;;-5.44;85.37
68141;BME280;54941;52.220;104.306;2023-01-28T02:42:50;96289.16;;;-5.38;85.58
68141;BME280;54941;52.220;104.306;2023-01-28T02:45:23;96282.66;;;-5.41;86.73
68141;BME280;54941;52.220;104.306;2023-01-28T02:47:50;96284.44;;;-5.43;87.51
68141;BME280;54941;52.220;104.306;2023-01-28T02:50:18;96290.22;;;-5.29;88.29
68141;BME280;54941;52.220;104.306;2023-01-28T02:52:55;96298.47;;;-5.05;88.20
68141;BME280;54941;52.220;104.306;2023-01-28T02:55:30;96299.34;;;-5.28;88.15
68141;BME280;54941;52.220;104.306;2023-01-28T02:58:04;96295.50;;;-5.21;88.41
68141;BME280;54941;52.220;104.306;2023-01-28T03:00:42;96300.91;;;-5.04;89.42
68141;BME280;54941;52.220;104.306;2023-01-28T03:03:14;96305.63;;;-4.88;88.48
68141;BME280;54941;52.220;104.306;2023-01-28T03:05:45;96312.13;;;-4.74;88.28
68141;BME280;54941;52.220;104.306;2023-01-28T03:08:14;96320.72;;;-4.77;88.12
68141;BME280;54941;52.220;104.306;2023-01-28T03:10:40;96318.78;;;-4.62;88.63
68141;BME280;54941;52.220;104.306;2023-01-28T03:13:07;96315.00;;;-4.68;88.20
68141;BME280;54941;52.220;104.306;2023-01-28T03:15:37;96323.81;;;-4.51;88.18
68141;BME280;54941;52.220;104.306;2023-01-28T03:18:08;96318.19;;;-4.77;88.04
68141;BME280;54941;52.220;104.306;2023-01-28T03:20:39;96313.06;;;-4.53;89.04
68141;BME280;54941;52.220;104.306;2023-01-28T03:23:10;96319.22;;;-4.57;88.75
68141;BME280;54941;52.220;104.306;2023-01-28T03:25:40;96315.69;;;-4.55;88.56
68141;BME280;54941;52.220;104.306;2023-01-28T03:28:09;96313.19;;;-4.32;87.95
68141;BME280;54941;52.220;104.306;2023-01-28T03:30:42;96331.34;;;-4.18;87.15
68141;BME280;54941;52.220;104.306;2023-01-28T03:33:11;96323.69;;;-4.27;87.40
68141;BME280;54941;52.220;104.306;2023-01-28T03:35:37;96324.59;;;-4.39;88.05
68141;BME280;54941;52.220;104.306;2023-01-28T03:38:05;96323.44;;;-4.35;87.95
68141;BME280;54941;52.220;104.306;2023-01-28T03:40:33;96324.50;;;-4.27;87.96
68141;BME280;54941;52.220;104.306;2023-01-28T03:42:59;96332.28;;;-4.41;88.35
68141;BME280;54941;52.220;104.306;2023-01-28T03:45:26;96325.38;;;-4.17;88.22
68141;BME280;54941;52.220;104.306;2023-01-28T03:47:54;96326.97;;;-3.94;87.78
68141;BME280;54941;52.220;104.306;2023-01-28T03:50:20;96332.00;;;-3.94;87.00
68141;BME280;54941;52.220;104.306;2023-01-28T03:52:46;96332.50;;;-3.57;85.65
68141;BME280;54941;52.220;104.306;2023-01-28T03:55:13;96330.28;;;-3.93;84.98
68141;BME280;54941;52.220;104.306;2023-01-28T03:57:40;96340.19;;;-3.69;85.24
68141;BME280;54941;52.220;104.306;2023-01-28T04:00:07;96342.03;;;-3.71;85.88
68141;BME280;54941;52.220;104.306;2023-01-28T04:02:34;96344.69;;;-3.84;85.17
68141;BME280;54941;52.220;104.306;2023-01-28T04:05:02;96357.28;;;-4.17;86.52
68141;BME280;54941;52.220;104.306;2023-01-28T04:07:29;96354.09;;;-3.97;87.09
68141;BME280;54941;52.220;104.306;2023-01-28T04:09:56;96351.34;;;-4.05;87.64
68141;BME280;54941;52.220;104.306;2023-01-28T04:12:24;96359.78;;;-3.95;87.48
68141;BME280;54941;52.220;104.306;2023-01-28T04:14:50;96354.31;;;-4.00;87.27
68141;BME280;54941;52.220;104.306;2023-01-28T04:17:17;96361.06;;;-4.12;87.53
68141;BME280;54941;52.220;104.306;2023-01-28T04:19:43;96365.78;;;-4.40;88.96
68141;BME280;54941;52.220;104.306;2023-01-28T04:22:11;96364.03;;;-4.51;89.62
68141;BME280;54941;52.220;104.306;2023-01-28T04:24:37;96364.72;;;-4.27;89.54
68141;BME280;54941;52.220;104.306;2023-01-28T04:27:04;96368.38;;;-3.98;88.81
68141;BME280;54941;52.220;104.306;2023-01-28T04:29:33;96372.47;;;-3.74;88.64
68141;BME280;54941;52.220;104.306;2023-01-28T04:31:59;96365.41;;;-3.37;87.32
68141;BME280;54941;52.220;104.306;2023-01-28T04:34:27;96362.34;;;-3.41;85.60
68141;BME280;54941;52.220;104.306;2023-01-28T04:36:53;96365.34;;;-3.69;87.22
68141;BME280;54941;52.220;104.306;2023-01-28T04:39:24;96372.59;;;-3.76;87.48
68141;BME280;54941;52.220;104.306;2023-01-28T04:41:52;96376.34;;;-3.59;86.62
68141;BME280;54941;52.220;104.306;2023-01-28T04:44:20;96378.28;;;-3.20;85.79
68141;BME280;54941;52.220;104.306;2023-01-28T04:46:46;96376.38;;;-3.27;85.08
68141;BME280;54941;52.220;104.306;2023-01-28T04:49:13;96380.41;;;-3.04;84.60
68141;BME280;54941;52.220;104.306;2023-01-28T04:51:39;96380.50;;;-3.26;84.33
68141;BME280;54941;52.220;104.306;2023-01-28T04:54:05;96385.84;;;-3.52;85.68
68141;BME280;54941;52.220;104.306;2023-01-28T04:56:33;96381.28;;;-3.80;86.70
68141;BME280;54941;52.220;104.306;2023-01-28T04:59:07;96383.31;;;-3.52;86.09
68141;BME280;54941;52.220;104.306;2023-01-28T05:01:34;96380.44;;;-3.15;85.15
68141;BME280;54941;52.220;104.306;2023-01-28T05:04:00;96380.31;;;-2.82;85.12
68141;BME280;54941;52.220;104.306;2023-01-28T05:06:26;96379.94;;;-2.77;83.86
68141;BME280;54941;52.220;104.306;2023-01-28T05:08:53;96386.16;;;-2.61;82.69
68141;BME280;54941;52.220;104.306;2023-01-28T05:11:19;96393.38;;;-3.52;85.46
68141;BME280;54941;52.220;104.306;2023-01-28T05:13:47;96384.00;;;-3.18;84.45
68141;BME280;54941;52.220;104.306;2023-01-28T05:16:13;96393.47;;;-2.78;85.14
68141;BME280;54941;52.220;104.306;2023-01-28T05:18:40;96407.31;;;-3.36;84.49
68141;BME280;54941;52.220;104.306;2023-01-28T05:21:06;96397.75;;;-3.11;83.91
68141;BME280;54941;52.220;104.306;2023-01-28T05:23:33;96406.97;;;-3.00;84.17
68141;BME280;54941;52.220;104.306;2023-01-28T05:25:59;96398.84;;;-3.04;84.34
68141;BME280;54941;52.220;104.306;2023-01-28T05:28:25;96402.84;;;-2.80;83.73
68141;BME280;54941;52.220;104.306;2023-01-28T05:30:53;96398.75;;;-2.81;82.72
68141;BME280;54941;52.220;104.306;2023-01-28T05:33:20;96402.31;;;-2.42;81.49
68141;BME280;54941;52.220;104.306;2023-01-28T05:35:46;96398.44;;;-2.26;80.37
68141;BME280;54941;52.220;104.306;2023-01-28T05:38:13;96396.94;;;-2.28;81.30
68141;BME280;54941;52.220;104.306;2023-01-28T05:40:39;96397.34;;;-2.33;80.21
68141;BME280;54941;52.220;104.306;2023-01-28T05:43:05;96405.78;;;-2.64;81.63
68141;BME280;54941;52.220;104.306;2023-01-28T05:45:32;96406.94;;;-2.68;81.75
68141;BME280;54941;52.220;104.306;2023-01-28T05:48:00;96402.50;;;-2.76;82.77
68141;BME280;54941;52.220;104.306;2023-01-28T05:50:26;96400.13;;;-2.77;83.59
68141;BME280;54941;52.220;104.306;2023-01-28T05:52:53;96395.56;;;-2.63;82.80
68141;BME280;54941;52.220;104.306;2023-01-28T05:55:19;96412.22;;;-2.92;83.15
68141;BME280;54941;52.220;104.306;2023-01-28T05:57:45;96410.47;;;-2.91;82.62
68141;BME280;54941;52.220;104.306;2023-01-28T06:00:13;96412.16;;;-2.81;82.97
68141;BME280;54941;52.220;104.306;2023-01-28T06:02:40;96403.34;;;-2.86;83.96
68141;BME280;54941;52.220;104.306;2023-01-28T06:05:09;96411.25;;;-2.38;82.20
68141;BME280;54941;52.220;104.306;2023-01-28T06:07:38;96410.19;;;-2.36;81.26
68141;BME280;54941;52.220;104.306;2023-01-28T06:10:06;96402.25;;;-2.01;80.10
68141;BME280;54941;52.220;104.306;2023-01-28T06:12:33;96406.63;;;-2.33;79.02
68141;BME280;54941;52.220;104.306;2023-01-28T06:14:59;96406.03;;;-2.16;78.05
68141;BME280;54941;52.220;104.306;2023-01-28T06:17:26;96415.63;;;-2.10;76.88
68141;BME280;54941;52.220;104.306;2023-01-28T06:19:52;96407.84;;;-2.07;76.33
68141;BME280;54941;52.220;104.306;2023-01-28T06:22:20;96414.81;;;-2.62;78.18
68141;BME280;54941;52.220;104.306;2023-01-28T06:24:46;96419.19;;;-2.96;79.60
68141;BME280;54941;52.220;104.306;2023-01-28T06:27:13;96416.72;;;-3.07;81.80
68141;BME280;54941;52.220;104.306;2023-01-28T06:29:39;96415.94;;;-3.07;80.88
68141;BME280;54941;52.220;104.306;2023-01-28T06:32:05;96413.09;;;-2.82;81.22
68141;BME280;54941;52.220;104.306;2023-01-28T06:34:32;96415.50;;;-2.91;79.74
68141;BME280;54941;52.220;104.306;2023-01-28T06:36:58;96421.22;;;-2.78;79.52
68141;BME280;54941;52.220;104.306;2023-01-28T06:39:26;96422.94;;;-2.79;79.09
68141;BME280;54941;52.220;104.306;2023-01-28T06:41:52;96423.91;;;-3.34;79.45
68141;BME280;54941;52.220;104.306;2023-01-28T06:44:19;96423.69;;;-2.99;79.97
68141;BME280;54941;52.220;104.306;2023-01-28T06:46:45;96433.09;;;-3.01;79.28
68141;BME280;54941;52.220;104.306;2023-01-28T06:49:12;96435.31;;;-3.08;79.17
68141;BME280;54941;52.220;104.306;2023-01-28T06:51:38;96430.44;;;-2.68;77.95
68141;BME280;54941;52.220;104.306;2023-01-28T06:54:05;96426.38;;;-2.59;78.14
68141;BME280;54941;52.220;104.306;2023-01-28T06:56:32;96437.38;;;-2.81;77.42
68141;BME280;54941;52.220;104.306;2023-01-28T06:58:59;96440.38;;;-2.55;77.30
68141;BME280;54941;52.220;104.306;2023-01-28T07:01:26;96434.88;;;-2.60;77.70
68141;BME280;54941;52.220;104.306;2023-01-28T07:03:52;96436.66;;;-2.30;76.78
68141;BME280;54941;52.220;104.306;2023-01-28T07:06:19;96443.09;;;-2.17;74.27
68141;BME280;54941;52.220;104.306;2023-01-28T07:08:45;96444.47;;;-2.13;74.06
68141;BME280;54941;52.220;104.306;2023-01-28T07:11:12;96438.97;;;-1.97;72.41
68141;BME280;54941;52.220;104.306;2023-01-28T07:13:40;96445.91;;;-1.89;72.82
68141;BME280;54941;52.220;104.306;2023-01-28T07:16:07;96450.06;;;-2.71;74.37
68141;BME280;54941;52.220;104.306;2023-01-28T07:18:33;96462.25;;;-2.87;74.46
68141;BME280;54941;52.220;104.306;2023-01-28T07:21:00;96472.59;;;-2.90;76.18
68141;BME280;54941;52.220;104.306;2023-01-28T07:23:26;96468.56;;;-2.82;76.98
68141;BME280;54941;52.220;104.306;2023-01-28T07:25:53;96470.94;;;-2.80;76.31
68141;BME280;54941;52.220;104.306;2023-01-28T07:28:19;96467.47;;;-2.68;75.34
68141;BME280;54941;52.220;104.306;2023-01-28T07:30:47;96468.34;;;-2.17;74.76
68141;BME280;54941;52.220;104.306;2023-01-28T07:33:14;96473.69;;;-1.59;72.41
68141;BME280;54941;52.220;104.306;2023-01-28T07:35:43;96476.13;;;-1.48;71.72
68141;BME280;54941;52.220;104.306;2023-01-28T07:38:10;96476.44;;;-1.72;71.74
68141;BME280;54941;52.220;104.306;2023-01-28T07:40:37;96478.44;;;-1.96;73.17
68141;BME280;54941;52.220;104.306;2023-01-28T07:43:04;96473.25;;;-1.94;73.03
68141;BME280;54941;52.220;104.306;2023-01-28T07:45:30;96479.50;;;-2.19;73.25
68141;BME280;54941;52.220;104.306;2023-01-28T07:48:00;96475.13;;;-1.97;72.23
68141;BME280;54941;52.220;104.306;2023-01-28T07:50:28;96471.25;;;-2.63;73.06
68141;BME280;54941;52.220;104.306;2023-01-28T07:52:54;96489.75;;;-2.84;74.75
68141;BME280;54941;52.220;104.306;2023-01-28T07:55:21;96483.81;;;-2.95;75.21
68141;BME280;54941;52.220;104.306;2023-01-28T07:57:49;96485.75;;;-3.41;76.12
68141;BME280;54941;52.220;104.306;2023-01-28T08:00:16;96484.59;;;-3.26;76.23
68141;BME280;54941;52.220;104.306;2023-01-28T08:02:42;96486.56;;;-3.52;77.81
68141;BME280;54941;52.220;104.306;2023-01-28T08:05:10;96491.38;;;-3.49;78.14
68141;BME280;54941;52.220;104.306;2023-01-28T08:07:37;96490.09;;;-3.54;78.60
68141;BME280;54941;52.220;104.306;2023-01-28T08:10:03;96490.09;;;-3.54;78.46
68141;BME280;54941;52.220;104.306;2023-01-28T08:12:30;96504.06;;;-3.72;78.66
68141;BME280;54941;52.220;104.306;2023-01-28T08:14:56;96506.50;;;-3.60;79.26
68141;BME280;54941;52.220;104.306;2023-01-28T08:17:23;96510.72;;;-3.49;79.38
68141;BME280;54941;52.220;104.306;2023-01-28T08:19:49;96510.16;;;-3.53;79.01
68141;BME280;54941;52.220;104.306;2023-01-28T08:22:17;96517.38;;;-3.70;79.93
68141;BME280;54941;52.220;104.306;2023-01-28T08:24:43;96503.41;;;-3.74;80.43
68141;BME280;54941;52.220;104.306;2023-01-28T08:27:10;96512.34;;;-3.70;80.42
68141;BME280;54941;52.220;104.306;2023-01-28T08:29:36;96521.25;;;-3.77;80.95
68141;BME280;54941;52.220;104.306;2023-01-28T08:32:02;96521.59;;;-3.71;80.47
68141;BME280;54941;52.220;104.306;2023-01-28T08:34:29;96521.41;;;-4.03;80.79
68141;BME280;54941;52.220;104.306;2023-01-28T08:36:55;96521.41;;;-4.03;82.43
68141;BME280;54941;52.220;104.306;2023-01-28T08:39:23;96516.78;;;-3.96;81.93
68141;BME280;54941;52.220;104.306;2023-01-28T08:41:49;96517.06;;;-4.12;82.59
68141;BME280;54941;52.220;104.306;2023-01-28T08:44:16;96521.19;;;-4.11;84.14
68141;BME280;54941;52.220;104.306;2023-01-28T08:46:42;96522.38;;;-3.92;83.88
68141;BME280;54941;52.220;104.306;2023-01-28T08:49:09;96524.75;;;-4.02;83.04
68141;BME280;54941;52.220;104.306;2023-01-28T08:51:35;96521.81;;;-3.85;83.10
68141;BME280;54941;52.220;104.306;2023-01-28T08:54:02;96531.41;;;-3.90;83.04
68141;BME280;54941;52.220;104.306;2023-01-28T08:56:30;96530.09;;;-4.18;83.71
68141;BME280;54941;52.220;104.306;2023-01-28T08:58:56;96531.78;;;-4.29;84.99
68141;BME280;54941;52.220;104.306;2023-01-28T09:01:22;96544.69;;;-4.34;85.20
68141;BME280;54941;52.220;104.306;2023-01-28T09:03:49;96531.47;;;-4.49;86.06
68141;BME280;54941;52.220;104.306;2023-01-28T09:06:15;96533.81;;;-4.34;86.39
68141;BME280;54941;52.220;104.306;2023-01-28T09:08:41;96535.81;;;-4.51;86.81
68141;BME280;54941;52.220;104.306;2023-01-28T09:11:08;96536.03;;;-4.54;87.60
68141;BME280;54941;52.220;104.306;2023-01-28T09:13:36;96534.94;;;-4.73;88.10
68141;BME280;54941;52.220;104.306;2023-01-28T09:16:04;96527.25;;;-4.72;88.72
68141;BME280;54941;52.220;104.306;2023-01-28T09:18:30;96529.09;;;-4.74;88.76
68141;BME280;54941;52.220;104.306;2023-01-28T09:20:57;96536.53;;;-4.96;88.76
68141;BME280;54941;52.220;104.306;2023-01-28T09:23:23;96524.28;;;-5.13;89.98
68141;BME280;54941;52.220;104.306;2023-01-28T09:25:49;96538.59;;;-5.26;90.01
68141;BME280;54941;52.220;104.306;2023-01-28T09:28:16;96543.84;;;-5.29;90.31
68141;BME280;54941;52.220;104.306;2023-01-28T09:30:44;96539.13;;;-5.34;90.57
68141;BME280;54941;52.220;104.306;2023-01-28T09:33:10;96542.97;;;-5.41;91.07
68141;BME280;54941;52.220;104.306;2023-01-28T09:35:36;96542.44;;;-5.46;91.64
68141;BME280;54941;52.220;104.306;2023-01-28T09:38:03;96547.81;;;-5.51;92.22
68141;BME280;54941;52.220;104.306;2023-01-28T09:40:35;96542.56;;;-5.60;92.53
68141;BME280;54941;52.220;104.306;2023-01-28T09:45:53;96542.78;;;-5.76;93.17
68141;BME280;54941;52.220;104.306;2023-01-28T09:48:27;96540.38;;;-5.77;94.09
68141;BME280;54941;52.220;104.306;2023-01-28T09:50:55;96550.63;;;-5.80;94.24
68141;BME280;54941;52.220;104.306;2023-01-28T09:53:23;96545.34;;;-5.88;94.16
68141;BME280;54941;52.220;104.306;2023-01-28T09:55:54;96544.53;;;-5.89;94.92
68141;BME280;54941;52.220;104.306;2023-01-28T09:58:22;96558.97;;;-5.93;94.93
68141;BME280;54941;52.220;104.306;2023-01-28T10:00:55;96551.75;;;-5.97;95.82
68141;BME280;54941;52.220;104.306;2023-01-28T10:03:50;96554.44;;;-6.00;95.84
68141;BME280;54941;52.220;104.306;2023-01-28T10:06:25;96551.84;;;-5.99;96.01
68141;BME280;54941;52.220;104.306;2023-01-28T10:09:06;96550.03;;;-5.97;96.12
68141;BME280;54941;52.220;104.306;2023-01-28T10:11:46;96550.25;;;-6.00;96.13
68141;BME280;54941;52.220;104.306;2023-01-28T10:14:21;96552.16;;;-6.03;95.90
68141;BME280;54941;52.220;104.306;2023-01-28T10:16:59;96548.31;;;-6.21;95.64
68141;BME280;54941;52.220;104.306;2023-01-28T10:19:33;96556.84;;;-6.11;95.34
68141;BME280;54941;52.220;104.306;2023-01-28T10:22:07;96551.06;;;-6.38;94.32
68141;BME280;54941;52.220;104.306;2023-01-28T10:24:40;96556.69;;;-6.48;92.99
68141;BME280;54941;52.220;104.306;2023-01-28T10:27:13;96547.25;;;-6.44;93.35
68141;BME280;54941;52.220;104.306;2023-01-28T10:29:41;96554.25;;;-6.76;92.68
68141;BME280;54941;52.220;104.306;2023-01-28T10:32:16;96554.13;;;-6.87;93.88
68141;BME280;54941;52.220;104.306;2023-01-28T10:34:47;96560.34;;;-7.07;93.84
68141;BME280;54941;52.220;104.306;2023-01-28T10:37:14;96550.53;;;-7.10;94.67
68141;BME280;54941;52.220;104.306;2023-01-28T10:39:41;96547.03;;;-7.07;95.09
68141;BME280;54941;52.220;104.306;2023-01-28T10:42:26;96551.38;;;-6.97;95.50
68141;BME280;54941;52.220;104.306;2023-01-28T10:44:56;96546.59;;;-6.87;95.01
68141;BME280;54941;52.220;104.306;2023-01-28T10:47:29;96549.09;;;-6.87;95.05
68141;BME280;54941;52.220;104.306;2023-01-28T10:49:57;96543.00;;;-6.83;95.02
68141;BME280;54941;52.220;104.306;2023-01-28T10:52:24;96550.06;;;-6.75;95.01
68141;BME280;54941;52.220;104.306;2023-01-28T10:54:58;96552.66;;;-6.77;94.67
68141;BME280;54941;52.220;104.306;2023-01-28T10:57:25;96545.22;;;-7.05;94.26
68141;BME280;54941;52.220;104.306;2023-01-28T10:59:51;96542.41;;;-7.13;94.44
68141;BME280;54941;52.220;104.306;2023-01-28T11:02:31;96538.47;;;-7.31;94.15
68141;BME280;54941;52.220;104.306;2023-01-28T11:05:14;96536.78;;;-7.17;94.33
68141;BME280;54941;52.220;104.306;2023-01-28T11:07:40;96539.63;;;-7.23;94.42
68141;BME280;54941;52.220;104.306;2023-01-28T11:10:24;96535.91;;;-7.44;94.11
68141;BME280;54941;52.220;104.306;2023-01-28T11:12:54;96542.97;;;-7.51;94.94
68141;BME280;54941;52.220;104.306;2023-01-28T11:15:21;96536.44;;;-7.53;95.98
68141;BME280;54941;52.220;104.306;2023-01-28T11:17:51;96535.81;;;-7.57;96.26
68141;BME280;54941;52.220;104.306;2023-01-28T11:20:23;96536.44;;;-7.39;96.76
68141;BME280;54941;52.220;104.306;2023-01-28T11:22:52;96531.41;;;-7.25;96.15
68141;BME280;54941;52.220;104.306;2023-01-28T11:25:27;96529.56;;;-7.64;94.93
68141;BME280;54941;52.220;104.306;2023-01-28T11:27:55;96525.38;;;-8.06;92.92
68141;BME280;54941;52.220;104.306;2023-01-28T11:30:23;96526.09;;;-7.75;93.08
68141;BME280;54941;52.220;104.306;2023-01-28T11:33:02;96535.03;;;-7.85;93.23
68141;BME280;54941;52.220;104.306;2023-01-28T11:35:30;96533.06;;;-7.95;94.31
68141;BME280;54941;52.220;104.306;2023-01-28T11:37:57;96533.06;;;-7.95;94.81
68141;BME280;54941;52.220;104.306;2023-01-28T11:40:24;96532.00;;;-7.76;95.39
68141;BME280;54941;52.220;104.306;2023-01-28T11:42:52;96535.66;;;-7.68;95.23
68141;BME280;54941;52.220;104.306;2023-01-28T11:45:23;96536.44;;;-7.67;95.62
68141;BME280;54941;52.220;104.306;2023-01-28T11:48:06;96534.31;;;-7.73;94.99
68141;BME280;54941;52.220;104.306;2023-01-28T11:50:43;96531.19;;;-7.77;94.29
68141;BME280;54941;52.220;104.306;2023-01-28T11:53:30;96537.69;;;-8.03;94.00
68141;BME280;54941;52.220;104.306;2023-01-28T11:56:19;96531.13;;;-8.19;94.24
68141;BME280;54941;52.220;104.306;2023-01-28T11:58:57;96537.78;;;-7.90;95.64
68141;BME280;54941;52.220;104.306;2023-01-28T12:01:38;96537.97;;;-7.79;96.41
68141;BME280;54941;52.220;104.306;2023-01-28T12:04:22;96535.91;;;-8.01;96.35
68141;BME280;54941;52.220;104.306;2023-01-28T12:07:09;96540.25;;;-8.18;95.80
68141;BME280;54941;52.220;104.306;2023-01-28T12:09:44;96533.19;;;-8.40;95.45
68141;BME280;54941;52.220;104.306;2023-01-28T12:12:35;96540.25;;;-8.32;95.78
68141;BME280;54941;52.220;104.306;2023-01-28T12:15:30;96541.38;;;-8.24;95.06
68141;BME280;54941;52.220;104.306;2023-01-28T12:18:14;96532.66;;;-8.31;95.27
68141;BME280;54941;52.220;104.306;2023-01-28T12:20:50;96529.69;;;-8.23;95.64
68141;BME280;54941;52.220;104.306;2023-01-28T12:23:33;96524.31;;;-8.46;95.50
68141;BME280;54941;52.220;104.306;2023-01-28T12:26:09;96523.56;;;-8.46;95.88
68141;BME280;54941;52.220;104.306;2023-01-28T12:28:56;96528.25;;;-8.27;96.33
68141;BME280;54941;52.220;104.306;2023-01-28T12:31:37;96524.56;;;-8.20;96.30
68141;BME280;54941;52.220;104.306;2023-01-28T12:37:13;96528.63;;;-8.19;96.52
68141;BME280;54941;52.220;104.306;2023-01-28T12:39:52;96519.72;;;-8.38;95.58
68141;BME280;54941;52.220;104.306;2023-01-28T12:42:29;96518.25;;;-8.27;94.36
68141;BME280;54941;52.220;104.306;2023-01-28T12:45:01;96519.44;;;-8.47;93.61
68141;BME280;54941;52.220;104.306;2023-01-28T12:47:34;96525.44;;;-8.65;92.59
68141;BME280;54941;52.220;104.306;2023-01-28T12:50:10;96521.13;;;-8.77;91.50
68141;BME280;54941;52.220;104.306;2023-01-28T12:52:44;96524.72;;;-8.67;92.53
68141;BME280;54941;52.220;104.306;2023-01-28T12:55:15;96515.28;;;-8.62;92.94
68141;BME280;54941;52.220;104.306;2023-01-28T12:57:43;96522.16;;;-8.66;92.92